sensor_id;sensor_type;location;lat;lon;timestamp;pressure;altitude;pressure_sealevel;temperature;humidity
75886;BME280;64561;44.018;10.144;2023-02-11T00:01:12;103551.75;;;2.25;67.50
75886;BME280;64561;44.018;10.144;2023-02-11T00:03:42;103551.75;;;2.25;68.82
75886;BME280;64561;44.018;10.144;2023-02-11T00:06:09;103544.25;;;2.10;68.73
75886;BME280;64561;44.018;10.144;2023-02-11T00:08:37;103539.47;;;2.04;68.60
75886;BME280;64561;44.018;10.144;2023-02-11T00:11:04;103537.06;;;1.97;68.22
75886;BME280;64561;44.018;10.144;2023-02-11T00:13:31;103536.19;;;1.96;68.42
75886;BME280;64561;44.018;10.144;2023-02-11T00:15:58;103538.34;;;1.85;68.92
75886;BME280;64561;44.018;10.144;2023-02-11T00:18:25;103539.28;;;1.69;69.38
75886;BME280;64561;44.018;10.144;2023-02-11T00:20:52;103534.75;;;1.58;68.69
75886;BME280;64561;44.018;10.144;2023-02-11T00:23:18;103532.22;;;1.58;69.35
75886;BME280;64561;44.018;10.144;2023-02-11T00:25:45;103535.69;;;1.67;68.28
75886;BME280;64561;44.018;10.144;2023-02-11T00:28:12;103535.91;;;1.77;67.99
75886;BME280;64561;44.018;10.144;2023-02-11T00:30:39;103522.56;;;1.78;67.65
75886;BME280;64561;44.018;10.144;2023-02-11T00:33:07;103524.97;;;1.86;67.52
75886;BME280;64561;44.018;10.144;2023-02-11T00:35:36;103520.34;;;1.81;67.43
75886;BME280;64561;44.018;10.144;2023-02-11T00:38:06;103526.78;;;1.87;67.29
75886;BME280;64561;44.018;10.144;2023-02-11T00:40:33;103525.91;;;1.95;68.13
75886;BME280;64561;44.018;10.144;2023-02-11T00:43:00;103516.09;;;1.65;68.03
75886;BME280;64561;44.018;10.144;2023-02-11T00:45:26;103514.72;;;1.59;68.36
75886;BME280;64561;44.018;10.144;2023-02-11T00:47:56;103516.34;;;1.59;68.19
75886;BME280;64561;44.018;10.144;2023-02-11T00:50:23;103515.00;;;1.54;68.65
75886;BME280;64561;44.018;10.144;2023-02-11T00:52:50;103521.94;;;1.56;68.31
75886;BME280;64561;44.018;10.144;2023-02-11T00:55:17;103516.34;;;1.59;69.27
75886;BME280;64561;44.018;10.144;2023-02-11T00:57:44;103512.84;;;1.50;68.89
75886;BME280;64561;44.018;10.144;2023-02-11T01:00:12;103513.78;;;1.34;70.16
75886;BME280;64561;44.018;10.144;2023-02-11T01:02:39;103512.06;;;1.26;69.97
75886;BME280;64561;44.018;10.144;2023-02-11T01:05:06;103499.31;;;1.25;69.99
75886;BME280;64561;44.018;10.144;2023-02-11T01:07:33;103505.56;;;1.28;69.95
75886;BME280;64561;44.018;10.144;2023-02-11T01:10:00;103501.59;;;1.30;69.58
75886;BME280;64561;44.018;10.144;2023-02-11T01:12:28;103501.91;;;1.33;69.54
75886;BME280;64561;44.018;10.144;2023-02-11T01:14:57;103502.63;;;1.48;69.41
75886;BME280;64561;44.018;10.144;2023-02-11T01:17:23;103495.88;;;1.40;69.00
75886;BME280;64561;44.018;10.144;2023-02-11T01:19:50;103492.41;;;1.31;69.15
75886;BME280;64561;44.018;10.144;2023-02-11T01:22:17;103500.22;;;1.25;69.13
75886;BME280;64561;44.018;10.144;2023-02-11T01:24:46;103495.28;;;1.18;69.12
75886;BME280;64561;44.018;10.144;2023-02-11T01:27:12;103495.41;;;1.20;68.80
75886;BME280;64561;44.018;10.144;2023-02-11T01:29:39;103499.31;;;1.25;68.29
75886;BME280;64561;44.018;10.144;2023-02-11T01:32:06;103492.41;;;1.31;68.20
75886;BME280;64561;44.018;10.144;2023-02-11T01:34:33;103490.69;;;1.39;69.46
75886;BME280;64561;44.018;10.144;2023-02-11T01:37:00;103489.78;;;1.38;68.73
75886;BME280;64561;44.018;10.144;2023-02-11T01:39:27;103480.78;;;1.24;68.87
75886;BME280;64561;44.018;10.144;2023-02-11T01:41:54;103486.88;;;1.10;69.42
75886;BME280;64561;44.018;10.144;2023-02-11T01:44:32;103492.19;;;0.89;70.19
75886;BME280;64561;44.018;10.144;2023-02-11T01:46:59;103488.78;;;0.88;69.43
75886;BME280;64561;44.018;10.144;2023-02-11T01:49:29;103496.44;;;0.97;69.99
75886;BME280;64561;44.018;10.144;2023-02-11T01:54:31;103487.56;;;1.01;69.87
75886;BME280;64561;44.018;10.144;2023-02-11T01:57:20;103483.16;;;1.07;69.62
75886;BME280;64561;44.018;10.144;2023-02-11T02:10:40;103473.16;;;0.68;72.05
75886;BME280;64561;44.018;10.144;2023-02-11T02:13:09;103467.00;;;0.73;72.51
75886;BME280;64561;44.018;10.144;2023-02-11T02:15:37;103469.09;;;0.77;71.56
75886;BME280;64561;44.018;10.144;2023-02-11T02:23:45;103463.16;;;0.93;70.54
75886;BME280;64561;44.018;10.144;2023-02-11T02:35:10;103461.78;;;0.56;70.99
75886;BME280;64561;44.018;10.144;2023-02-11T02:41:15;103457.47;;;0.55;72.00
75886;BME280;64561;44.018;10.144;2023-02-11T02:43:22;103450.06;;;0.72;71.69
75886;BME280;64561;44.018;10.144;2023-02-11T02:45:52;103440.75;;;0.55;71.99
75886;BME280;64561;44.018;10.144;2023-02-11T02:48:29;103447.78;;;0.51;71.20
75886;BME280;64561;44.018;10.144;2023-02-11T02:57:03;103446.00;;;0.50;71.28
75886;BME280;64561;44.018;10.144;2023-02-11T02:59:47;103437.91;;;0.52;71.39
75886;BME280;64561;44.018;10.144;2023-02-11T03:05:44;103439.28;;;0.57;70.89
75886;BME280;64561;44.018;10.144;2023-02-11T03:10:46;103433.50;;;0.74;70.73
75886;BME280;64561;44.018;10.144;2023-02-11T03:13:17;103436.34;;;0.77;70.81
75886;BME280;64561;44.018;10.144;2023-02-11T03:15:51;103429.38;;;0.90;70.47
75886;BME280;64561;44.018;10.144;2023-02-11T03:18:22;103432.28;;;0.86;69.58
75886;BME280;64561;44.018;10.144;2023-02-11T03:20:51;103441.69;;;0.96;70.42
75886;BME280;64561;44.018;10.144;2023-02-11T03:37:34;103428.38;;;0.34;71.25
75886;BME280;64561;44.018;10.144;2023-02-11T03:40:06;103432.88;;;0.13;72.24
75886;BME280;64561;44.018;10.144;2023-02-11T03:42:40;103428.19;;;-0.07;72.80
75886;BME280;64561;44.018;10.144;2023-02-11T03:45:11;103435.69;;;0.01;71.82
75886;BME280;64561;44.018;10.144;2023-02-11T03:47:44;103423.28;;;0.18;71.93
75886;BME280;64561;44.018;10.144;2023-02-11T03:50:14;103430.34;;;-0.03;72.32
75886;BME280;64561;44.018;10.144;2023-02-11T03:52:42;103433.56;;;-0.04;73.34
75886;BME280;64561;44.018;10.144;2023-02-11T03:55:16;103422.91;;;0.06;72.50
75886;BME280;64561;44.018;10.144;2023-02-11T03:57:44;103429.97;;;0.17;72.30
75886;BME280;64561;44.018;10.144;2023-02-11T04:00:12;103422.06;;;0.14;72.14
75886;BME280;64561;44.018;10.144;2023-02-11T04:02:40;103425.88;;;0.11;72.93
75886;BME280;64561;44.018;10.144;2023-02-11T04:05:08;103422.63;;;0.12;73.12
75886;BME280;64561;44.018;10.144;2023-02-11T04:07:35;103425.03;;;0.26;73.14
75886;BME280;64561;44.018;10.144;2023-02-11T04:10:02;103426.16;;;0.21;73.23
75886;BME280;64561;44.018;10.144;2023-02-11T04:12:29;103424.91;;;0.17;73.53
75886;BME280;64561;44.018;10.144;2023-02-11T04:14:56;103423.88;;;0.15;72.90
75886;BME280;64561;44.018;10.144;2023-02-11T04:17:23;103422.97;;;0.15;73.83
75886;BME280;64561;44.018;10.144;2023-02-11T04:19:50;103430.84;;;0.18;73.41
75886;BME280;64561;44.018;10.144;2023-02-11T04:22:16;103428.41;;;0.11;73.76
75886;BME280;64561;44.018;10.144;2023-02-11T04:24:43;103431.34;;;0.07;73.99
75886;BME280;64561;44.018;10.144;2023-02-11T04:27:10;103433.91;;;-0.01;74.43
75886;BME280;64561;44.018;10.144;2023-02-11T04:29:37;103426.41;;;-0.08;75.44
75886;BME280;64561;44.018;10.144;2023-02-11T04:32:04;103433.34;;;0.02;74.76
75886;BME280;64561;44.018;10.144;2023-02-11T04:34:31;103425.22;;;0.05;73.86
75886;BME280;64561;44.018;10.144;2023-02-11T04:36:57;103425.31;;;-0.03;74.08
75886;BME280;64561;44.018;10.144;2023-02-11T04:39:24;103424.63;;;-0.09;74.66
75886;BME280;64561;44.018;10.144;2023-02-11T04:41:51;103423.22;;;-0.14;74.77
75886;BME280;64561;44.018;10.144;2023-02-11T04:44:18;103420.31;;;-0.10;74.76
75886;BME280;64561;44.018;10.144;2023-02-11T04:46:45;103422.50;;;-0.13;75.77
75886;BME280;64561;44.018;10.144;2023-02-11T04:49:13;103422.84;;;-0.10;75.09
75886;BME280;64561;44.018;10.144;2023-02-11T04:51:41;103417.97;;;-0.08;75.38
75886;BME280;64561;44.018;10.144;2023-02-11T04:54:08;103422.13;;;-0.09;74.15
75886;BME280;64561;44.018;10.144;2023-02-11T04:56:35;103421.06;;;-0.11;74.23
75886;BME280;64561;44.018;10.144;2023-02-11T04:59:02;103427.16;;;-0.09;73.85
75886;BME280;64561;44.018;10.144;2023-02-11T05:01:29;103424.38;;;-0.03;74.80
75886;BME280;64561;44.018;10.144;2023-02-11T05:03:55;103430.59;;;0.08;74.47
75886;BME280;64561;44.018;10.144;2023-02-11T05:06:22;103428.81;;;0.07;73.18
75886;BME280;64561;44.018;10.144;2023-02-11T05:08:49;103436.41;;;-0.01;74.53
75886;BME280;64561;44.018;10.144;2023-02-11T05:11:19;103431.34;;;0.07;73.69
75886;BME280;64561;44.018;10.144;2023-02-11T05:13:47;103440.25;;;0.12;73.36
75886;BME280;64561;44.018;10.144;2023-02-11T05:16:15;103436.50;;;0.31;73.62
75886;BME280;64561;44.018;10.144;2023-02-11T05:18:43;103435.75;;;0.32;73.44
75886;BME280;64561;44.018;10.144;2023-02-11T05:21:16;103443.31;;;0.32;73.11
75886;BME280;64561;44.018;10.144;2023-02-11T05:23:44;103446.00;;;0.34;73.08
75886;BME280;64561;44.018;10.144;2023-02-11T05:26:11;103447.78;;;0.35;73.57
75886;BME280;64561;44.018;10.144;2023-02-11T05:28:39;103450.22;;;0.42;72.52
75886;BME280;64561;44.018;10.144;2023-02-11T05:31:06;103457.16;;;0.52;72.35
75886;BME280;64561;44.018;10.144;2023-02-11T05:33:33;103454.41;;;0.57;71.13
75886;BME280;64561;44.018;10.144;2023-02-11T05:36:02;103443.03;;;0.61;71.48
75886;BME280;64561;44.018;10.144;2023-02-11T05:38:29;103461.47;;;0.53;70.54
75886;BME280;64561;44.018;10.144;2023-02-11T05:40:56;103448.03;;;0.45;71.31
75886;BME280;64561;44.018;10.144;2023-02-11T05:43:23;103454.53;;;0.43;70.96
75886;BME280;64561;44.018;10.144;2023-02-11T05:45:50;103456.19;;;0.42;70.56
75886;BME280;64561;44.018;10.144;2023-02-11T05:48:18;103450.72;;;0.31;70.09
75886;BME280;64561;44.018;10.144;2023-02-11T05:50:45;103458.09;;;0.29;69.97
75886;BME280;64561;44.018;10.144;2023-02-11T05:53:12;103464.41;;;0.26;70.09
75886;BME280;64561;44.018;10.144;2023-02-11T05:55:38;103454.31;;;0.10;70.53
75886;BME280;64561;44.018;10.144;2023-02-11T05:58:06;103465.22;;;-0.06;71.06
75886;BME280;64561;44.018;10.144;2023-02-11T06:00:33;103465.66;;;-0.17;71.42
75886;BME280;64561;44.018;10.144;2023-02-11T06:03:00;103454.97;;;-0.30;71.97
75886;BME280;64561;44.018;10.144;2023-02-11T06:05:30;103461.50;;;-0.39;72.76
75886;BME280;64561;44.018;10.144;2023-02-11T06:07:57;103456.03;;;-0.51;73.43
75886;BME280;64561;44.018;10.144;2023-02-11T06:10:25;103454.75;;;-0.48;73.10
75886;BME280;64561;44.018;10.144;2023-02-11T06:12:52;103454.47;;;-0.35;72.64
75886;BME280;64561;44.018;10.144;2023-02-11T06:15:18;103452.75;;;-0.20;72.53
75886;BME280;64561;44.018;10.144;2023-02-11T06:17:45;103449.13;;;-0.15;72.58
75886;BME280;64561;44.018;10.144;2023-02-11T06:20:12;103444.44;;;-0.12;73.02
75886;BME280;64561;44.018;10.144;2023-02-11T06:22:39;103455.44;;;0.05;71.77
75886;BME280;64561;44.018;10.144;2023-02-11T06:25:06;103455.94;;;0.09;71.50
75886;BME280;64561;44.018;10.144;2023-02-11T06:27:33;103454.13;;;0.08;70.69
75886;BME280;64561;44.018;10.144;2023-02-11T06:30:00;103453.97;;;0.07;72.05
75886;BME280;64561;44.018;10.144;2023-02-11T06:32:27;103456.50;;;0.07;71.50
75886;BME280;64561;44.018;10.144;2023-02-11T06:35:09;103458.84;;;0.05;72.23
75886;BME280;64561;44.018;10.144;2023-02-11T06:37:38;103457.06;;;0.04;72.05
75886;BME280;64561;44.018;10.144;2023-02-11T06:40:05;103461.19;;;0.04;72.04
75886;BME280;64561;44.018;10.144;2023-02-11T06:42:32;103464.94;;;0.07;72.46
75886;BME280;64561;44.018;10.144;2023-02-11T06:45:00;103463.31;;;0.08;72.20
75886;BME280;64561;44.018;10.144;2023-02-11T06:47:26;103459.06;;;-0.01;72.52
75886;BME280;64561;44.018;10.144;2023-02-11T06:49:53;103458.84;;;-0.18;73.68
75886;BME280;64561;44.018;10.144;2023-02-11T06:52:20;103468.69;;;-0.35;74.09
75886;BME280;64561;44.018;10.144;2023-02-11T06:54:47;103466.72;;;-0.38;74.41
75886;BME280;64561;44.018;10.144;2023-02-11T06:57:13;103470.84;;;-0.38;74.53
75886;BME280;64561;44.018;10.144;2023-02-11T06:59:40;103473.19;;;-0.40;74.77
75886;BME280;64561;44.018;10.144;2023-02-11T07:02:10;103470.19;;;-0.52;75.00
75886;BME280;64561;44.018;10.144;2023-02-11T07:04:37;103468.22;;;-0.54;75.80
75886;BME280;64561;44.018;10.144;2023-02-11T07:07:04;103478.06;;;-0.41;75.54
75886;BME280;64561;44.018;10.144;2023-02-11T07:09:31;103472.97;;;-0.34;74.99
75886;BME280;64561;44.018;10.144;2023-02-11T07:11:57;103480.44;;;-0.20;75.70
75886;BME280;64561;44.018;10.144;2023-02-11T07:14:24;103483.41;;;-0.08;75.12
75886;BME280;64561;44.018;10.144;2023-02-11T07:16:51;103477.59;;;0.00;74.44
75886;BME280;64561;44.018;10.144;2023-02-11T07:19:18;103486.22;;;0.18;74.76
75886;BME280;64561;44.018;10.144;2023-02-11T07:21:45;103494.00;;;0.35;74.37
75886;BME280;64561;44.018;10.144;2023-02-11T07:24:14;103485.31;;;0.40;73.99
75886;BME280;64561;44.018;10.144;2023-02-11T07:26:41;103493.69;;;0.48;74.28
75886;BME280;64561;44.018;10.144;2023-02-11T07:29:08;103499.41;;;0.54;74.66
75886;BME280;64561;44.018;10.144;2023-02-11T07:31:34;103501.19;;;0.71;75.49
75886;BME280;64561;44.018;10.144;2023-02-11T07:34:01;103494.81;;;0.82;74.07
75886;BME280;64561;44.018;10.144;2023-02-11T07:36:29;103496.50;;;0.90;72.81
75886;BME280;64561;44.018;10.144;2023-02-11T07:38:57;103493.34;;;1.00;71.51
75886;BME280;64561;44.018;10.144;2023-02-11T07:41:26;103495.28;;;1.18;69.99
75886;BME280;64561;44.018;10.144;2023-02-11T07:43:53;103488.09;;;1.30;70.20
75886;BME280;64561;44.018;10.144;2023-02-11T07:46:23;103494.56;;;1.44;70.24
75886;BME280;64561;44.018;10.144;2023-02-11T07:48:50;103495.75;;;1.63;69.50
75886;BME280;64561;44.018;10.144;2023-02-11T07:51:23;103499.84;;;1.78;68.93
75886;BME280;64561;44.018;10.144;2023-02-11T07:53:50;103496.38;;;1.94;69.22
75886;BME280;64561;44.018;10.144;2023-02-11T07:56:18;103492.13;;;2.10;68.07
75886;BME280;64561;44.018;10.144;2023-02-11T07:58:46;103486.22;;;2.18;67.40
75886;BME280;64561;44.018;10.144;2023-02-11T08:01:22;103484.31;;;2.24;68.23
75886;BME280;64561;44.018;10.144;2023-02-11T08:03:51;103489.53;;;2.35;68.96
75886;BME280;64561;44.018;10.144;2023-02-11T08:06:20;103488.69;;;2.43;68.36
75886;BME280;64561;44.018;10.144;2023-02-11T08:08:47;103489.91;;;2.55;69.88
75886;BME280;64561;44.018;10.144;2023-02-11T08:13:43;103487.00;;;2.68;68.33
75886;BME280;64561;44.018;10.144;2023-02-11T08:18:50;103496.06;;;3.01;68.07
75886;BME280;64561;44.018;10.144;2023-02-11T08:21:18;103493.44;;;3.25;69.38
75886;BME280;64561;44.018;10.144;2023-02-11T08:23:46;103494.31;;;3.43;68.59
75886;BME280;64561;44.018;10.144;2023-02-11T08:26:20;103487.41;;;3.68;67.52
75886;BME280;64561;44.018;10.144;2023-02-11T08:28:49;103484.25;;;3.79;66.41
75886;BME280;64561;44.018;10.144;2023-02-11T08:31:21;103485.84;;;3.87;65.40
75886;BME280;64561;44.018;10.144;2023-02-11T08:33:49;103486.13;;;3.90;65.18
75886;BME280;64561;44.018;10.144;2023-02-11T08:36:20;103486.09;;;3.99;64.55
75886;BME280;64561;44.018;10.144;2023-02-11T08:38:47;103492.41;;;3.94;64.96
75886;BME280;64561;44.018;10.144;2023-02-11T08:41:15;103487.16;;;4.01;65.13
75886;BME280;64561;44.018;10.144;2023-02-11T08:43:43;103481.47;;;4.12;65.33
75886;BME280;64561;44.018;10.144;2023-02-11T08:46:13;103487.78;;;4.26;65.49
75886;BME280;64561;44.018;10.144;2023-02-11T08:48:41;103489.81;;;4.39;65.34
75886;BME280;64561;44.018;10.144;2023-02-11T08:51:12;103492.69;;;4.61;64.53
75886;BME280;64561;44.018;10.144;2023-02-11T08:53:39;103488.78;;;4.65;64.07
75886;BME280;64561;44.018;10.144;2023-02-11T08:56:07;103490.78;;;4.77;63.83
75886;BME280;64561;44.018;10.144;2023-02-11T08:58:34;103500.47;;;4.81;63.88
75886;BME280;64561;44.018;10.144;2023-02-11T09:01:01;103505.13;;;4.96;63.08
75886;BME280;64561;44.018;10.144;2023-02-11T09:03:28;103501.75;;;4.87;62.96
75886;BME280;64561;44.018;10.144;2023-02-11T09:05:55;103500.88;;;4.86;62.44
75886;BME280;64561;44.018;10.144;2023-02-11T09:08:22;103500.47;;;5.00;62.23
75886;BME280;64561;44.018;10.144;2023-02-11T09:10:49;103503.16;;;5.21;61.42
75886;BME280;64561;44.018;10.144;2023-02-11T09:13:17;103508.81;;;5.37;60.10
75886;BME280;64561;44.018;10.144;2023-02-11T09:15:44;103506.53;;;5.40;60.53
75886;BME280;64561;44.018;10.144;2023-02-11T09:18:12;103508.84;;;5.47;60.40
75886;BME280;64561;44.018;10.144;2023-02-11T09:20:39;103514.19;;;5.69;59.46
75886;BME280;64561;44.018;10.144;2023-02-11T09:23:06;103519.97;;;5.87;57.54
75886;BME280;64561;44.018;10.144;2023-02-11T09:25:33;103513.97;;;6.06;57.95
75886;BME280;64561;44.018;10.144;2023-02-11T09:28:00;103516.69;;;6.28;56.92
75886;BME280;64561;44.018;10.144;2023-02-11T09:30:27;103516.56;;;6.26;56.71
75886;BME280;64561;44.018;10.144;2023-02-11T09:32:54;103519.13;;;6.36;56.64
75886;BME280;64561;44.018;10.144;2023-02-11T09:35:20;103514.44;;;6.41;57.75
75886;BME280;64561;44.018;10.144;2023-02-11T09:37:47;103516.09;;;6.51;57.11
75886;BME280;64561;44.018;10.144;2023-02-11T09:40:15;103511.63;;;6.58;55.65
75886;BME280;64561;44.018;10.144;2023-02-11T09:45:32;103513.03;;;6.85;55.83
75886;BME280;64561;44.018;10.144;2023-02-11T09:50:37;103518.22;;;7.18;53.19
75886;BME280;64561;44.018;10.144;2023-02-11T09:53:17;103520.00;;;7.19;52.98
75886;BME280;64561;44.018;10.144;2023-02-11T09:55:50;103530.84;;;7.16;52.74
75886;BME280;64561;44.018;10.144;2023-02-11T09:58:39;103532.75;;;7.08;55.81
75886;BME280;64561;44.018;10.144;2023-02-11T10:01:23;103531.47;;;7.14;55.20
75886;BME280;64561;44.018;10.144;2023-02-11T10:04:06;103531.47;;;7.03;54.84
75886;BME280;64561;44.018;10.144;2023-02-11T10:06:42;103541.16;;;7.18;55.39
75886;BME280;64561;44.018;10.144;2023-02-11T10:23:28;103547.28;;;7.62;55.48
75886;BME280;64561;44.018;10.144;2023-02-11T10:25:57;103542.38;;;7.75;55.63
75886;BME280;64561;44.018;10.144;2023-02-11T10:28:34;103545.16;;;7.89;56.12
75886;BME280;64561;44.018;10.144;2023-02-11T10:31:07;103545.41;;;7.92;56.14
75886;BME280;64561;44.018;10.144;2023-02-11T10:36:11;103535.44;;;7.95;56.91
75886;BME280;64561;44.018;10.144;2023-02-11T10:38:38;103529.63;;;7.86;55.38
75886;BME280;64561;44.018;10.144;2023-02-11T10:41:05;103523.22;;;7.91;54.96
75886;BME280;64561;44.018;10.144;2023-02-11T10:43:33;103520.66;;;7.91;56.00
75886;BME280;64561;44.018;10.144;2023-02-11T10:46:02;103523.22;;;7.91;56.36
75886;BME280;64561;44.018;10.144;2023-02-11T10:48:50;103509.72;;;7.92;56.00
75886;BME280;64561;44.018;10.144;2023-02-11T10:51:30;103517.13;;;7.89;55.35
75886;BME280;64561;44.018;10.144;2023-02-11T10:56:31;103512.03;;;7.78;55.14
75886;BME280;64561;44.018;10.144;2023-02-11T10:59:03;103509.56;;;7.68;55.91
75886;BME280;64561;44.018;10.144;2023-02-11T11:01:45;103496.25;;;7.83;58.33
75886;BME280;64561;44.018;10.144;2023-02-11T11:04:37;103489.91;;;8.21;56.31
75886;BME280;64561;44.018;10.144;2023-02-11T11:07:24;103487.81;;;8.50;56.13
75886;BME280;64561;44.018;10.144;2023-02-11T11:10:02;103487.22;;;8.76;55.93
75886;BME280;64561;44.018;10.144;2023-02-11T11:15:13;103484.78;;;8.77;53.02
75886;BME280;64561;44.018;10.144;2023-02-11T11:17:42;103487.75;;;8.72;52.49
75886;BME280;64561;44.018;10.144;2023-02-11T11:20:22;103487.50;;;8.57;53.56
75886;BME280;64561;44.018;10.144;2023-02-11T11:22:51;103473.28;;;8.60;52.08
75886;BME280;64561;44.018;10.144;2023-02-11T11:25:27;103479.47;;;8.86;51.85
75886;BME280;64561;44.018;10.144;2023-02-11T11:27:57;103466.38;;;9.05;52.05
75886;BME280;64561;44.018;10.144;2023-02-11T11:30:40;103466.28;;;9.03;49.34
75886;BME280;64561;44.018;10.144;2023-02-11T11:33:29;103457.50;;;8.88;49.71
75886;BME280;64561;44.018;10.144;2023-02-11T11:36:03;103465.25;;;9.01;48.87
75886;BME280;64561;44.018;10.144;2023-02-11T11:38:34;103464.91;;;9.08;48.26
75886;BME280;64561;44.018;10.144;2023-02-11T11:41:32;103454.81;;;8.98;47.73
75886;BME280;64561;44.018;10.144;2023-02-11T11:46:34;103450.59;;;9.22;48.22
75886;BME280;64561;44.018;10.144;2023-02-11T11:49:22;103449.78;;;9.47;46.88
75886;BME280;64561;44.018;10.144;2023-02-11T11:52:31;103436.63;;;9.66;46.38
75886;BME280;64561;44.018;10.144;2023-02-11T11:55:20;103434.69;;;9.87;45.45
75886;BME280;64561;44.018;10.144;2023-02-11T11:57:48;103438.63;;;10.06;46.18
75886;BME280;64561;44.018;10.144;2023-02-11T12:00:23;103440.34;;;10.19;46.51
75886;BME280;64561;44.018;10.144;2023-02-11T12:11:52;103444.34;;;10.66;44.34
75886;BME280;64561;44.018;10.144;2023-02-11T12:25:26;103439.44;;;10.44;46.63
75886;BME280;64561;44.018;10.144;2023-02-11T12:28:06;103433.03;;;10.62;46.39
75886;BME280;64561;44.018;10.144;2023-02-11T12:31:01;103433.72;;;10.73;45.45
75886;BME280;64561;44.018;10.144;2023-02-11T12:36:42;103431.63;;;10.54;47.67
75886;BME280;64561;44.018;10.144;2023-02-11T12:48:17;103426.56;;;10.42;46.85
75886;BME280;64561;44.018;10.144;2023-02-11T12:50:59;103420.25;;;10.37;46.81
75886;BME280;64561;44.018;10.144;2023-02-11T12:53:35;103425.03;;;10.58;46.71
75886;BME280;64561;44.018;10.144;2023-02-11T12:56:16;103403.63;;;10.44;46.41
75886;BME280;64561;44.018;10.144;2023-02-11T12:58:46;103413.56;;;10.39;46.59
75886;BME280;64561;44.018;10.144;2023-02-11T13:01:28;103405.56;;;10.35;46.51
75886;BME280;64561;44.018;10.144;2023-02-11T13:06:55;103398.16;;;10.26;47.00
75886;BME280;64561;44.018;10.144;2023-02-11T13:09:47;103396.28;;;10.23;47.50
75886;BME280;64561;44.018;10.144;2023-02-11T13:12:17;103378.66;;;10.53;47.21
75886;BME280;64561;44.018;10.144;2023-02-11T13:15:11;103370.69;;;10.75;46.51
75886;BME280;64561;44.018;10.144;2023-02-11T13:18:05;103376.88;;;10.79;45.67
75886;BME280;64561;44.018;10.144;2023-02-11T13:20:52;103373.53;;;10.80;45.94
75886;BME280;64561;44.018;10.144;2023-02-11T13:23:22;103370.66;;;10.88;44.20
75886;BME280;64561;44.018;10.144;2023-02-11T13:26:05;103367.81;;;10.84;45.21
75886;BME280;64561;44.018;10.144;2023-02-11T13:28:41;103368.50;;;10.68;45.71
75886;BME280;64561;44.018;10.144;2023-02-11T13:31:10;103363.28;;;10.66;46.19
75886;BME280;64561;44.018;10.144;2023-02-11T13:33:39;103363.50;;;10.69;47.66
75886;BME280;64561;44.018;10.144;2023-02-11T13:38:36;103354.69;;;10.39;45.64
75886;BME280;64561;44.018;10.144;2023-02-11T13:41:05;103344.22;;;10.23;46.68
75886;BME280;64561;44.018;10.144;2023-02-11T13:43:34;103346.78;;;10.23;46.92
75886;BME280;64561;44.018;10.144;2023-02-11T13:46:06;103349.19;;;10.33;46.05
75886;BME280;64561;44.018;10.144;2023-02-11T13:48:49;103350.84;;;10.33;46.12
75886;BME280;64561;44.018;10.144;2023-02-11T13:51:37;103344.97;;;10.47;46.43
75886;BME280;64561;44.018;10.144;2023-02-11T13:54:06;103343.47;;;10.37;46.26
75886;BME280;64561;44.018;10.144;2023-02-11T13:56:36;103347.97;;;10.28;47.32
75886;BME280;64561;44.018;10.144;2023-02-11T13:59:05;103343.06;;;10.31;46.83
75886;BME280;64561;44.018;10.144;2023-02-11T14:11:00;103337.50;;;10.63;46.56
75886;BME280;64561;44.018;10.144;2023-02-11T14:13:33;103330.88;;;10.67;46.39
75886;BME280;64561;44.018;10.144;2023-02-11T14:16:13;103338.97;;;10.73;47.88
75886;BME280;64561;44.018;10.144;2023-02-11T14:26:34;103322.22;;;10.65;48.57
75886;BME280;64561;44.018;10.144;2023-02-11T14:43:13;103315.63;;;10.42;49.09
75886;BME280;64561;44.018;10.144;2023-02-11T14:45:44;103320.09;;;10.19;49.39
75886;BME280;64561;44.018;10.144;2023-02-11T14:48:15;103319.19;;;10.05;49.31
75886;BME280;64561;44.018;10.144;2023-02-11T14:50:49;103309.28;;;9.85;51.02
75886;BME280;64561;44.018;10.144;2023-02-11T14:53:21;103320.41;;;9.85;52.37
75886;BME280;64561;44.018;10.144;2023-02-11T14:55:49;103317.91;;;9.99;51.96
75886;BME280;64561;44.018;10.144;2023-02-11T14:58:30;103310.91;;;10.10;52.20
75886;BME280;64561;44.018;10.144;2023-02-11T15:03:27;103315.63;;;10.03;52.72
75886;BME280;64561;44.018;10.144;2023-02-11T15:06:04;103316.72;;;10.07;51.99
75886;BME280;64561;44.018;10.144;2023-02-11T15:08:36;103312.88;;;10.00;52.71
75886;BME280;64561;44.018;10.144;2023-02-11T15:11:09;103313.63;;;9.86;53.94
75886;BME280;64561;44.018;10.144;2023-02-11T15:13:37;103314.50;;;9.87;53.66
75886;BME280;64561;44.018;10.144;2023-02-11T15:16:08;103314.81;;;9.91;54.27
75886;BME280;64561;44.018;10.144;2023-02-11T15:18:39;103317.75;;;9.84;55.17
75886;BME280;64561;44.018;10.144;2023-02-11T15:21:09;103314.94;;;9.68;56.29
75886;BME280;64561;44.018;10.144;2023-02-11T15:23:36;103313.84;;;9.64;56.80
75886;BME280;64561;44.018;10.144;2023-02-11T15:26:12;103312.59;;;9.71;56.31
75886;BME280;64561;44.018;10.144;2023-02-11T15:28:45;103317.69;;;9.96;53.31
75886;BME280;64561;44.018;10.144;2023-02-11T15:31:19;103314.63;;;10.01;53.62
75886;BME280;64561;44.018;10.144;2023-02-11T15:33:50;103316.03;;;10.10;54.43
75886;BME280;64561;44.018;10.144;2023-02-11T15:36:18;103314.75;;;10.03;54.65
75886;BME280;64561;44.018;10.144;2023-02-11T15:39:28;103313.25;;;9.93;54.29
75886;BME280;64561;44.018;10.144;2023-02-11T15:42:27;103319.72;;;9.88;54.47
75886;BME280;64561;44.018;10.144;2023-02-11T15:45:19;103320.47;;;9.74;54.59
75886;BME280;64561;44.018;10.144;2023-02-11T15:47:51;103320.97;;;9.56;54.46
75886;BME280;64561;44.018;10.144;2023-02-11T15:50:25;103322.69;;;9.44;54.02